createdAt,value
2022-10-18T00:02:03.844Z,6.57
2022-10-18T00:04:30.304Z,7.03
2022-10-18T00:06:56.653Z,6.67
2022-10-18T00:09:23.058Z,6.43
2022-10-18T00:11:49.508Z,6.90
2022-10-18T00:14:15.926Z,6.73
2022-10-18T00:16:42.235Z,7.50
2022-10-18T00:19:08.557Z,7.00
2022-10-18T00:21:35.094Z,6.50
2022-10-18T00:24:01.550Z,6.80
2022-10-18T00:26:29.809Z,7.20
2022-10-18T00:28:59.269Z,6.27
2022-10-18T00:31:28.175Z,5.90
2022-10-18T00:33:56.965Z,6.90
2022-10-18T00:36:24.538Z,5.93
2022-10-18T00:38:51.211Z,7.10
2022-10-18T00:41:23.645Z,6.33
2022-10-18T00:44:00.441Z,6.73
2022-10-18T00:46:33.017Z,6.60
2022-10-18T00:49:02.409Z,6.20
2022-10-18T00:51:48.474Z,7.10
2022-10-18T00:54:17.052Z,7.10
2022-10-18T00:56:44.810Z,7.10
2022-10-18T00:59:13.778Z,6.57
2022-10-18T01:01:40.234Z,6.80
2022-10-18T01:04:06.823Z,7.63
2022-10-18T01:06:41.765Z,7.17
2022-10-18T01:09:32.554Z,7.27
2022-10-18T01:12:13.854Z,6.97
2022-10-18T01:14:49.924Z,7.50
2022-10-18T01:17:29.347Z,6.67
2022-10-18T01:20:09.863Z,6.87
2022-10-18T01:22:47.889Z,6.93
2022-10-18T01:25:32.520Z,7.33
2022-10-18T01:28:34.489Z,7.83
2022-10-18T01:31:05.629Z,7.20
2022-10-18T01:33:43.581Z,6.60
2022-10-18T01:36:19.139Z,6.63
2022-10-18T01:38:49.740Z,9.13
2022-10-18T01:41:19.173Z,6.53
2022-10-18T01:43:47.949Z,7.57
2022-10-18T01:46:18.753Z,6.50
2022-10-18T01:48:45.913Z,7.30
2022-10-18T01:51:12.245Z,6.90
2022-10-18T01:53:38.617Z,7.17
2022-10-18T01:56:23.333Z,7.80
2022-10-18T01:59:11.043Z,6.57
2022-10-18T02:01:42.286Z,7.10
2022-10-18T02:04:32.573Z,7.30
2022-10-18T02:07:08.197Z,7.33
2022-10-18T02:09:46.145Z,6.60
2022-10-18T02:12:14.787Z,6.63
2022-10-18T02:14:43.413Z,7.17
2022-10-18T02:17:12.428Z,6.70
2022-10-18T02:19:43.847Z,7.40
2022-10-18T02:22:12.695Z,7.50
2022-10-18T02:24:44.140Z,7.60
2022-10-18T02:27:10.823Z,7.37
2022-10-18T02:29:38.749Z,7.53
2022-10-18T02:32:07.767Z,6.70
2022-10-18T02:34:40.486Z,7.70
2022-10-18T02:37:10.687Z,7.13
2022-10-18T02:39:48.631Z,6.90
2022-10-18T02:42:15.744Z,6.90
2022-10-18T02:44:42.195Z,6.73
2022-10-18T02:47:12.072Z,6.60
2022-10-18T02:49:38.417Z,7.30
2022-10-18T02:52:04.772Z,7.70
2022-10-18T02:54:31.214Z,6.70
2022-10-18T02:56:57.528Z,6.50
2022-10-18T02:59:23.881Z,6.80
2022-10-18T03:01:50.258Z,6.67
2022-10-18T03:04:16.689Z,7.33
2022-10-18T03:06:43.053Z,6.70
2022-10-18T03:09:09.688Z,7.40
2022-10-18T03:11:35.987Z,7.07
2022-10-18T03:14:02.320Z,7.07
2022-10-18T03:16:28.738Z,6.83
2022-10-18T03:18:55.042Z,6.90
2022-10-18T03:21:21.554Z,7.67
2022-10-18T03:23:47.867Z,8.07
2022-10-18T03:26:14.265Z,8.03
2022-10-18T03:28:40.893Z,7.70
2022-10-18T03:31:07.259Z,7.30
2022-10-18T03:33:33.853Z,8.50
2022-10-18T03:36:02.483Z,6.87
2022-10-18T03:38:29.026Z,7.63
2022-10-18T03:40:55.412Z,6.73
2022-10-18T03:43:22.667Z,7.90
2022-10-18T03:45:48.992Z,7.87
2022-10-18T03:48:15.383Z,7.20
2022-10-18T03:50:42.788Z,7.63
2022-10-18T03:53:09.324Z,7.40
2022-10-18T03:55:36.755Z,7.07
2022-10-18T03:58:03.339Z,7.20
2022-10-18T04:00:29.863Z,7.47
2022-10-18T04:02:56.279Z,7.17
2022-10-18T04:05:28.302Z,7.50
2022-10-18T04:07:54.881Z,8.47
2022-10-18T04:10:21.253Z,7.40
2022-10-18T04:12:47.764Z,7.40
2022-10-18T04:15:14.118Z,6.50
2022-10-18T04:17:40.466Z,7.80
2022-10-18T04:20:07.388Z,6.83
2022-10-18T04:22:33.699Z,8.03
2022-10-18T04:25:00.048Z,7.30
2022-10-18T04:27:26.418Z,7.33
2022-10-18T04:29:52.783Z,7.43
2022-10-18T04:32:19.089Z,8.00
2022-10-18T04:34:45.401Z,7.57
2022-10-18T04:37:11.750Z,8.50
2022-10-18T04:39:38.128Z,8.43
2022-10-18T04:42:04.864Z,8.17
2022-10-18T04:44:31.187Z,7.60
2022-10-18T04:46:57.499Z,7.90
2022-10-18T04:49:24.014Z,8.50
2022-10-18T04:51:50.523Z,8.20
2022-10-18T04:54:17.163Z,8.33
2022-10-18T04:56:43.475Z,7.83
2022-10-18T04:59:09.820Z,8.27
2022-10-18T05:01:36.370Z,7.70
2022-10-18T05:04:02.709Z,8.00
2022-10-18T05:06:29.179Z,7.50
2022-10-18T05:08:55.526Z,7.07
2022-10-18T05:11:21.931Z,7.63
2022-10-18T05:13:50.184Z,8.10
2022-10-18T05:16:17.364Z,7.70
2022-10-18T05:18:43.675Z,7.13
2022-10-18T05:21:10.161Z,7.50
2022-10-18T05:23:36.479Z,7.80
2022-10-18T05:26:04.878Z,7.33
2022-10-18T05:28:39.760Z,7.80
2022-10-18T05:31:10.489Z,7.07
2022-10-18T05:33:36.807Z,7.40
2022-10-18T05:36:04.225Z,7.70
2022-10-18T05:38:30.937Z,7.60
2022-10-18T05:40:58.723Z,7.67
2022-10-18T05:43:28.858Z,7.63
2022-10-18T05:45:55.623Z,7.63
2022-10-18T05:48:22.076Z,8.00
2022-10-18T05:50:48.429Z,7.77
2022-10-18T05:53:35.113Z,7.37
2022-10-18T05:56:02.344Z,7.00
2022-10-18T05:58:28.664Z,7.77
2022-10-18T06:00:57.862Z,8.50
2022-10-18T06:03:24.171Z,7.47
2022-10-18T06:05:50.494Z,7.50
2022-10-18T06:08:16.806Z,8.33
2022-10-18T06:10:43.127Z,8.43
2022-10-18T06:13:09.449Z,7.70
2022-10-18T06:15:35.747Z,7.80
2022-10-18T06:18:02.068Z,7.80
2022-10-18T06:20:28.377Z,7.67
2022-10-18T06:22:54.738Z,8.50
2022-10-18T06:25:21.049Z,8.13
2022-10-18T06:27:47.350Z,7.77
2022-10-18T06:30:13.805Z,7.77
2022-10-18T06:32:42.166Z,7.63
2022-10-18T06:35:09.095Z,8.30
2022-10-18T06:37:36.769Z,8.60
2022-10-18T06:40:03.347Z,8.30
2022-10-18T06:42:29.808Z,7.83
2022-10-18T06:44:56.265Z,8.23
2022-10-18T06:47:22.626Z,7.53
2022-10-18T06:49:48.970Z,7.10
2022-10-18T06:52:20.614Z,7.97
2022-10-18T06:54:47.131Z,8.00
2022-10-18T06:57:13.454Z,8.10
2022-10-18T06:59:39.770Z,7.50
2022-10-18T07:02:06.230Z,6.87
2022-10-18T07:04:32.743Z,7.70
2022-10-18T07:06:59.058Z,8.20
2022-10-18T07:09:25.368Z,7.67
2022-10-18T07:11:52.810Z,8.30
2022-10-18T07:14:19.320Z,8.70
2022-10-18T07:16:45.813Z,7.47
2022-10-18T07:19:12.157Z,8.83
2022-10-18T07:21:38.545Z,8.00
2022-10-18T07:24:05.046Z,8.00
2022-10-18T07:26:33.205Z,7.83
2022-10-18T07:29:07.434Z,8.60
2022-10-18T07:31:34.356Z,8.83
2022-10-18T07:34:00.812Z,8.50
2022-10-18T07:36:27.184Z,8.70
2022-10-18T07:38:53.595Z,7.80
2022-10-18T07:41:20.334Z,7.50
2022-10-18T07:43:48.813Z,7.80
2022-10-18T07:46:16.172Z,7.50
2022-10-18T07:48:43.244Z,7.80
2022-10-18T07:51:09.964Z,6.90
2022-10-18T07:53:36.879Z,6.23
2022-10-18T07:56:11.402Z,6.60
2022-10-18T07:58:37.750Z,6.77
2022-10-18T08:01:06.672Z,6.70
2022-10-18T08:03:34.239Z,7.23
2022-10-18T08:06:01.341Z,6.10
2022-10-18T08:08:28.736Z,7.00
2022-10-18T08:10:55.166Z,5.17
2022-10-18T08:13:22.238Z,7.23
2022-10-18T08:15:48.591Z,5.93
2022-10-18T08:18:15.021Z,6.10
2022-10-18T08:20:45.483Z,6.60
2022-10-18T08:23:12.020Z,6.87
2022-10-18T08:25:38.528Z,5.93
2022-10-18T08:28:05.141Z,6.23
2022-10-18T08:30:31.479Z,7.73
2022-10-18T08:32:57.792Z,6.87
2022-10-18T08:35:24.154Z,6.77
2022-10-18T08:37:51.140Z,6.83
2022-10-18T08:40:17.463Z,7.40
2022-10-18T08:43:08.334Z,6.40
2022-10-18T08:45:42.953Z,7.80
2022-10-18T08:48:43.629Z,6.60
2022-10-18T08:51:26.211Z,6.97
2022-10-18T08:54:13.579Z,6.30
2022-10-18T08:56:45.339Z,6.50
2022-10-18T08:59:12.869Z,6.70
2022-10-18T09:01:54.182Z,6.87
2022-10-18T09:04:27.098Z,7.60
2022-10-18T09:07:15.263Z,6.20
2022-10-18T09:10:00.011Z,6.67
2022-10-18T09:12:51.264Z,7.10
2022-10-18T09:15:38.945Z,8.10
2022-10-18T09:18:20.342Z,7.00
2022-10-18T09:20:55.155Z,8.07
2022-10-18T09:23:31.207Z,7.47
2022-10-18T09:26:15.663Z,7.73
2022-10-18T09:29:03.850Z,6.37
2022-10-18T09:32:04.487Z,6.60
2022-10-18T09:34:50.522Z,6.23
2022-10-18T09:37:19.555Z,6.17
2022-10-18T09:39:48.110Z,8.00
2022-10-18T09:42:26.565Z,6.97
2022-10-18T09:45:00.693Z,6.33
2022-10-18T09:47:37.194Z,6.07
2022-10-18T09:50:19.253Z,6.97
2022-10-18T09:52:58.450Z,6.90
2022-10-18T09:55:33.892Z,6.00
2022-10-18T09:58:05.090Z,5.83
2022-10-18T10:00:35.131Z,6.10
2022-10-18T10:03:02.193Z,6.13
2022-10-18T10:05:28.512Z,6.27
2022-10-18T10:07:59.808Z,6.03
2022-10-18T10:10:28.605Z,5.70
2022-10-18T10:13:03.966Z,5.90
2022-10-18T10:15:35.266Z,5.10
2022-10-18T10:18:18.968Z,5.80
2022-10-18T10:20:48.429Z,5.70
2022-10-18T10:23:25.938Z,5.77
2022-10-18T10:25:59.261Z,6.30
2022-10-18T10:28:33.135Z,5.73
2022-10-18T10:31:24.336Z,5.70
2022-10-18T10:34:14.147Z,5.20
2022-10-18T10:36:51.662Z,5.07
2022-10-18T10:39:20.242Z,6.60
2022-10-18T10:41:49.736Z,5.53
2022-10-18T10:44:18.936Z,5.10
2022-10-18T10:46:48.162Z,5.10
2022-10-18T10:52:27.719Z,5.07
2022-10-18T10:55:05.786Z,5.17
2022-10-18T10:57:45.928Z,4.77
2022-10-18T11:00:37.395Z,5.13
2022-10-18T11:03:28.441Z,4.87
2022-10-18T11:05:57.543Z,4.73
2022-10-18T11:08:31.817Z,4.53
2022-10-18T11:11:17.009Z,5.00
2022-10-18T11:14:13.773Z,5.30
2022-10-18T11:16:56.269Z,4.17
2022-10-18T11:19:37.619Z,3.97
2022-10-18T11:22:09.379Z,4.03
2022-10-18T11:24:37.058Z,4.33
2022-10-18T11:27:10.363Z,4.63
2022-10-18T11:29:49.353Z,4.27
2022-10-18T11:32:47.135Z,4.20
2022-10-18T11:35:40.331Z,4.10
2022-10-18T11:38:29.259Z,3.93
2022-10-18T11:40:55.704Z,4.20
2022-10-18T11:44:01.215Z,4.40
2022-10-18T11:46:52.763Z,3.77
2022-10-18T11:49:32.206Z,3.73
2022-10-18T11:52:24.448Z,4.03
2022-10-18T11:55:09.701Z,3.80
2022-10-18T11:58:02.274Z,4.63
2022-10-18T12:01:03.698Z,4.10
2022-10-18T12:03:44.902Z,3.70
2022-10-18T12:06:19.362Z,3.47
2022-10-18T12:08:50.509Z,4.53
2022-10-18T12:11:46.920Z,3.90
2022-10-18T12:14:30.347Z,3.50
2022-10-18T12:17:35.677Z,4.40
2022-10-18T12:19:51.757Z,3.90
2022-10-18T12:22:40.299Z,4.20
2022-10-18T12:25:13.634Z,4.23
2022-10-18T12:28:02.382Z,3.93
2022-10-18T12:30:47.074Z,3.60
2022-10-18T12:33:28.238Z,4.10
2022-10-18T12:36:41.508Z,4.17
2022-10-18T12:39:21.567Z,4.00
2022-10-18T12:41:57.010Z,4.50
2022-10-18T12:44:31.717Z,4.70
2022-10-18T12:47:00.902Z,3.60
2022-10-18T12:49:31.585Z,3.50
2022-10-18T12:52:01.586Z,4.37
2022-10-18T12:55:25.886Z,4.37
2022-10-18T12:57:52.339Z,4.00
2022-10-18T13:00:30.897Z,3.60
2022-10-18T13:03:09.834Z,3.50
2022-10-18T13:05:53.505Z,4.10
2022-10-18T13:08:27.115Z,3.70
2022-10-18T13:11:09.045Z,3.70
2022-10-18T13:14:06.037Z,4.10
2022-10-18T13:16:38.453Z,3.30
2022-10-18T13:19:21.573Z,4.07
2022-10-18T13:22:06.660Z,4.03
2022-10-18T13:24:38.989Z,3.60
2022-10-18T13:27:42.165Z,3.50
2022-10-18T13:30:11.572Z,4.90
2022-10-18T13:33:02.489Z,3.97
2022-10-18T13:35:52.573Z,3.37
2022-10-18T13:38:42.493Z,3.77
2022-10-18T13:41:13.297Z,4.23
2022-10-18T13:44:11.355Z,3.13
2022-10-18T13:47:01.788Z,3.57
2022-10-18T13:49:40.524Z,4.20
2022-10-18T13:52:25.727Z,4.00
2022-10-18T13:55:20.375Z,4.10
2022-10-18T13:58:49.057Z,3.80
2022-10-18T14:02:36.315Z,3.90
2022-10-18T14:05:38.343Z,4.07
2022-10-18T14:08:13.673Z,3.73
2022-10-18T14:11:01.902Z,3.77
2022-10-18T14:13:42.556Z,3.60
2022-10-18T14:16:29.494Z,3.10
2022-10-18T14:19:14.576Z,3.33
2022-10-18T14:21:48.555Z,3.87
2022-10-18T14:24:21.189Z,3.80
2022-10-18T14:26:47.672Z,4.10
2022-10-18T14:29:19.752Z,4.07
2022-10-18T14:31:54.150Z,4.80
2022-10-18T14:34:21.685Z,4.70
2022-10-18T14:36:49.452Z,4.40
2022-10-18T14:39:22.450Z,3.90
2022-10-18T14:41:51.448Z,4.00
2022-10-18T14:44:21.882Z,4.10
2022-10-18T14:47:22.714Z,4.40
2022-10-18T14:49:50.227Z,4.80
2022-10-18T14:52:21.957Z,4.03
2022-10-18T14:54:54.223Z,4.50
2022-10-18T14:57:35.371Z,3.60
2022-10-18T15:00:07.363Z,4.37
2022-10-18T15:02:37.223Z,3.63
2022-10-18T15:05:17.059Z,4.30
2022-10-18T15:07:44.114Z,4.80
2022-10-18T15:10:17.810Z,3.83
2022-10-18T15:13:08.220Z,4.37
2022-10-18T15:15:34.678Z,3.83
2022-10-18T15:18:01.862Z,4.00
2022-10-18T15:20:31.779Z,4.03
2022-10-18T15:23:33.076Z,5.30
2022-10-18T15:26:04.284Z,4.63
2022-10-18T15:28:39.314Z,3.40
2022-10-18T15:31:06.663Z,3.70
2022-10-18T15:33:34.762Z,4.77
2022-10-18T15:36:12.490Z,4.20
2022-10-18T15:38:39.071Z,4.60
2022-10-18T15:41:41.035Z,3.60
2022-10-18T15:44:19.165Z,3.60
2022-10-18T15:46:47.554Z,3.63
2022-10-18T15:49:44.715Z,4.40
2022-10-18T15:52:33.851Z,3.80
2022-10-18T15:55:27.768Z,4.40
2022-10-18T15:58:02.095Z,3.70
2022-10-18T16:00:28.404Z,4.20
2022-10-18T16:02:54.747Z,4.60
2022-10-18T16:05:21.168Z,4.73
2022-10-18T16:07:53.463Z,3.80
2022-10-18T16:10:20.155Z,4.10
2022-10-18T16:12:46.745Z,4.20
2022-10-18T16:15:13.153Z,3.70
2022-10-18T16:17:39.446Z,4.50
2022-10-18T16:20:06.428Z,4.40
2022-10-18T16:22:34.810Z,4.00
2022-10-18T16:25:03.764Z,3.83
2022-10-18T16:27:30.085Z,3.83
2022-10-18T16:29:56.562Z,4.00
2022-10-18T16:32:22.864Z,3.93
2022-10-18T16:34:49.170Z,5.50
2022-10-18T16:37:15.612Z,5.90
2022-10-18T16:39:41.971Z,4.77
2022-10-18T16:42:08.782Z,4.90
2022-10-18T16:44:35.297Z,9.20
2022-10-18T16:47:01.772Z,7.67
2022-10-18T16:49:28.374Z,5.27
2022-10-18T16:51:55.395Z,7.37
2022-10-18T16:54:23.371Z,7.57
2022-10-18T16:56:50.429Z,6.00
2022-10-18T16:59:29.078Z,5.90
2022-10-18T17:01:55.564Z,5.73
2022-10-18T17:04:22.097Z,6.10
2022-10-18T17:06:49.042Z,5.67
2022-10-18T17:09:15.978Z,5.30
2022-10-18T17:11:42.418Z,12.33
2022-10-18T17:14:08.824Z,12.97
2022-10-18T17:16:36.709Z,5.83
2022-10-18T17:19:07.094Z,5.97
2022-10-18T17:21:33.578Z,5.93
2022-10-18T17:24:03.077Z,5.93
2022-10-18T17:26:30.613Z,5.80
2022-10-18T17:29:00.198Z,5.03
2022-10-18T17:31:27.958Z,5.93
2022-10-18T17:33:55.175Z,5.30
2022-10-18T17:36:22.102Z,5.60
2022-10-18T17:38:53.093Z,5.73
2022-10-18T17:41:19.990Z,5.73
2022-10-18T17:43:47.863Z,6.80
2022-10-18T17:46:14.601Z,6.80
2022-10-18T17:48:41.960Z,7.70
2022-10-18T17:51:10.053Z,6.93
2022-10-18T17:53:36.536Z,6.67
2022-10-18T17:56:04.358Z,5.80
2022-10-18T17:58:31.867Z,6.17
2022-10-18T18:01:07.575Z,5.63
2022-10-18T18:03:34.045Z,6.70
2022-10-18T18:06:00.595Z,7.00
2022-10-18T18:08:27.143Z,6.30
2022-10-18T18:10:55.349Z,6.23
2022-10-18T18:13:21.678Z,6.50
2022-10-18T18:15:47.990Z,5.90
2022-10-18T18:18:14.326Z,8.47
2022-10-18T18:20:40.713Z,7.03
2022-10-18T18:23:07.043Z,6.40
2022-10-18T18:25:33.357Z,8.20
2022-10-18T18:28:03.838Z,6.93
2022-10-18T18:30:33.898Z,7.00
2022-10-18T18:33:00.299Z,14.47
2022-10-18T18:35:26.637Z,17.20
2022-10-18T18:37:53.096Z,12.60
2022-10-18T18:40:19.551Z,9.67
2022-10-18T18:42:56.788Z,8.07
2022-10-18T18:45:32.467Z,7.93
2022-10-18T18:47:58.815Z,6.63
2022-10-18T18:50:25.184Z,16.80
2022-10-18T18:52:51.555Z,39.47
2022-10-18T18:55:17.882Z,9.33
2022-10-18T18:57:44.200Z,6.10
2022-10-18T19:00:12.525Z,6.90
2022-10-18T19:02:38.925Z,6.90
2022-10-18T19:05:05.529Z,7.27
2022-10-18T19:07:32.254Z,6.27
2022-10-18T19:09:58.886Z,5.93
2022-10-18T19:12:25.260Z,7.50
2022-10-18T19:14:51.612Z,9.27
2022-10-18T19:17:17.934Z,9.93
2022-10-18T19:19:44.420Z,16.67
2022-10-18T19:22:11.028Z,13.40
2022-10-18T19:24:37.453Z,8.53
2022-10-18T19:27:09.586Z,8.10
2022-10-18T19:29:37.530Z,7.93
2022-10-18T19:32:06.992Z,8.20
2022-10-18T19:34:37.095Z,6.40
2022-10-18T19:37:04.271Z,7.87
2022-10-18T19:39:35.377Z,6.00
2022-10-18T19:42:07.176Z,7.50
2022-10-18T19:44:36.088Z,6.90
2022-10-18T19:47:04.741Z,6.13
2022-10-18T19:49:31.276Z,6.90
2022-10-18T19:51:58.170Z,7.03
2022-10-18T19:54:24.867Z,6.30
2022-10-18T19:56:51.407Z,6.77
2022-10-18T19:59:17.942Z,7.30
2022-10-18T20:01:45.168Z,7.73
2022-10-18T20:04:13.318Z,7.50
2022-10-18T20:06:40.573Z,7.63
2022-10-18T20:09:08.582Z,6.30
2022-10-18T20:11:35.386Z,6.77
2022-10-18T20:14:01.944Z,6.20
2022-10-18T20:16:30.642Z,6.77
2022-10-18T20:19:06.556Z,6.23
2022-10-18T20:21:35.646Z,6.63
2022-10-18T20:24:05.728Z,7.70
2022-10-18T20:26:33.030Z,7.43
2022-10-18T20:28:59.940Z,6.77
2022-10-18T20:31:31.749Z,8.07
2022-10-18T20:34:00.901Z,11.67
2022-10-18T20:36:28.955Z,11.80
2022-10-18T20:38:55.965Z,8.17
2022-10-18T20:41:28.550Z,6.90
2022-10-18T20:44:03.479Z,6.80
2022-10-18T20:46:32.053Z,8.30
2022-10-18T20:48:58.376Z,6.80
2022-10-18T20:51:24.732Z,7.03
2022-10-18T20:53:51.491Z,6.33
2022-10-18T20:56:20.321Z,7.50
2022-10-18T20:58:48.666Z,6.73
2022-10-18T21:01:18.087Z,7.33
2022-10-18T21:03:46.394Z,6.30
2022-10-18T21:06:33.097Z,7.07
2022-10-18T21:09:01.992Z,6.70
2022-10-18T21:11:32.125Z,7.00
2022-10-18T21:14:02.456Z,7.77
2022-10-18T21:16:30.454Z,7.97
2022-10-18T21:19:11.596Z,8.30
2022-10-18T21:21:38.027Z,12.23
2022-10-18T21:24:07.147Z,7.27
2022-10-18T21:26:35.566Z,8.00
2022-10-18T21:29:07.939Z,7.53
2022-10-18T21:31:36.955Z,6.87
2022-10-18T21:34:12.678Z,6.70
2022-10-18T21:36:40.431Z,7.47
2022-10-18T21:39:10.416Z,8.50
2022-10-18T21:41:37.671Z,8.13
2022-10-18T21:44:08.242Z,8.00
2022-10-18T21:46:36.363Z,6.53
2022-10-18T21:49:03.064Z,6.80
2022-10-18T21:51:29.448Z,7.70
2022-10-18T21:53:57.565Z,7.10
2022-10-18T21:56:34.691Z,7.23
2022-10-18T21:59:02.458Z,6.80
2022-10-18T22:01:32.412Z,6.80
2022-10-18T22:04:00.863Z,8.80
2022-10-18T22:06:29.926Z,8.30
2022-10-18T22:09:00.350Z,8.80
2022-10-18T22:11:29.928Z,7.80
2022-10-18T22:13:57.127Z,7.80
2022-10-18T22:16:24.038Z,7.20
2022-10-18T22:18:51.098Z,8.10
2022-10-18T22:21:19.535Z,7.33
2022-10-18T22:23:49.054Z,8.37
2022-10-18T22:26:27.864Z,8.33
2022-10-18T22:29:00.014Z,7.50
2022-10-18T22:31:29.989Z,7.83
2022-10-18T22:34:05.059Z,7.70
2022-10-18T22:36:32.411Z,7.27
2022-10-18T22:38:58.852Z,7.93
2022-10-18T22:41:25.469Z,7.60
2022-10-18T22:43:53.112Z,6.90
2022-10-18T22:46:20.207Z,8.17
2022-10-18T22:48:47.024Z,7.23
2022-10-18T22:51:13.486Z,7.53
2022-10-18T22:53:40.856Z,7.73
2022-10-18T22:56:09.877Z,6.53
2022-10-18T22:58:36.547Z,7.50
2022-10-18T23:01:09.383Z,6.80
2022-10-18T23:03:36.706Z,7.00
2022-10-18T23:06:04.536Z,7.60
2022-10-18T23:08:31.361Z,6.93
2022-10-18T23:10:59.431Z,7.70
2022-10-18T23:13:27.378Z,6.83
2022-10-18T23:16:04.204Z,8.03
2022-10-18T23:18:31.657Z,7.03
2022-10-18T23:21:06.583Z,7.10
2022-10-18T23:23:35.440Z,7.30
2022-10-18T23:26:04.029Z,8.50
2022-10-18T23:28:33.429Z,7.80
2022-10-18T23:31:04.271Z,6.90
2022-10-18T23:33:30.821Z,6.97
2022-10-18T23:35:58.854Z,8.57
2022-10-18T23:38:25.199Z,9.20
2022-10-18T23:40:51.529Z,8.50
2022-10-18T23:43:18.008Z,7.90
2022-10-18T23:45:44.323Z,8.40
2022-10-18T23:48:10.641Z,8.03
2022-10-18T23:50:36.965Z,7.70
2022-10-18T23:53:03.528Z,8.37
2022-10-18T23:55:30.338Z,8.27
2022-10-18T23:57:56.785Z,7.60
